Flight Track Log - Related Links

Times and Time Zones

All times are in EDT time to prevent confusion due to time zone crossing. See the UCA4838 flight status page for this flight to view local times or setup timezone preferences in your user account.


Time Position Orientation Groundspeed Altitude Reporting Facility
EDT Latitude Longitude Course Direction KTS MPH feet Rate Location/Type
Wed 06:21:49 AM 43.1036 -77.6914 193° South 111 128 1,200  Level Cleveland Center
Wed 06:22:50 AM 43.0725 -77.7014 193° South 154 177 2,000 738 Climbing Cleveland Center
Wed 06:23:51 AM 43.0417 -77.6372 123° Southeast 231 266 2,700 783 Climbing Cleveland Center
Wed 06:24:22 AM 43.0261 -77.5956 117° Southeast 223 257 3,200 989 Climbing Cleveland Center
Wed 06:25:22 AM 42.9989 -77.5144 115° Southeast 232 267 4,200 950 Climbing Cleveland Center
Wed 06:26:22 AM 42.9739 -77.4361 114° Southeast 232 267 5,100 1,000 Climbing Cleveland Center
Wed 06:27:22 AM 42.9467 -77.3581 115° Southeast 232 267 6,200 936 Climbing Cleveland Center
Wed 06:29:15 AM 42.8961 -77.2047 114° Southeast 244 281 7,800 828 Climbing New York Center
Wed 06:30:16 AM 42.8694 -77.1228 114° Southeast 244 281 8,600 793 Climbing New York Center
Wed 06:31:16 AM 42.8383 -77.0406 117° Southeast 244 281 9,400 793 Climbing New York Center
Wed 06:32:17 AM 42.8094 -76.9558 115° Southeast 244 281 10,200 857 Climbing New York Center
Wed 06:33:15 AM 42.7719 -76.8789 124° Southeast 244 281 11,100 807 Climbing New York Center
Wed 06:34:16 AM 42.7406 -76.7997 118° Southeast 244 281 11,800 694 Climbing New York Center
Wed 06:35:16 AM 42.7028 -76.7200 123° Southeast 244 281 12,500 605 Climbing New York Center
Wed 06:36:15 AM 42.6672 -76.6378 120° Southeast 244 281 13,000 252 Climbing New York Center
Wed 06:37:15 AM 42.6278 -76.5525 122° Southeast 249 287 13,000  Level New York Center
Wed 06:38:17 AM 42.5867 -76.4589 121° Southeast 269 310 13,000  Level New York Center
Wed 06:38:55 AM 42.5625 -76.4097 124° Southeast 274 315 13,000  Level Boston Center
Wed 06:39:55 AM 42.5294 -76.3342 121° Southeast 286 329 13,000  Level Boston Center
Wed 06:40:55 AM 42.4811 -76.2269 121° Southeast 286 329 13,000 -50 Level Boston Center
Wed 06:41:55 AM 42.4325 -76.1172 121° Southeast 286 329 12,900 -50 Descending Boston Center
Wed 06:42:55 AM 42.3858 -76.0158 122° Southeast 297 342 12,900  Level Boston Center
Wed 06:43:55 AM 42.3428 -75.9208 121° Southeast 297 342 12,900  Level Boston Center
Wed 06:44:55 AM 42.2997 -75.8256 121° Southeast 302 348 12,900  Level Boston Center
Wed 06:45:55 AM 42.2606 -75.7422 122° Southeast 302 348 12,900  Level Boston Center
Wed 06:46:55 AM 42.2194 -75.6475 120° Southeast 302 348 12,900  Level Boston Center
Wed 06:47:55 AM 42.1742 -75.5528 123° Southeast 302 348 12,900  Level Boston Center
Wed 06:48:55 AM 42.1308 -75.4581 122° Southeast 302 348 12,900  Level Boston Center
Wed 06:49:55 AM 42.0856 -75.3608 122° Southeast 302 348 12,900 50 Level Boston Center
Wed 06:50:55 AM 42.0442 -75.2667 121° Southeast 302 348 13,000 50 Climbing Boston Center
Wed 06:51:55 AM 42.0069 -75.1644 116° Southeast 302 348 13,000  Level Boston Center
Wed 06:52:55 AM 41.9658 -75.0564 117° Southeast 297 342 13,000  Level Boston Center
Wed 06:53:55 AM 41.9303 -74.9683 118° Southeast 292 336 13,000 -850 Level Boston Center
Wed 06:54:55 AM 41.8547 -74.9042 148° Southeast 286 329 11,300 -1,600 Descending Boston Center
Wed 06:55:55 AM 41.7931 -74.8600 152° Southeast 286 329 9,800 -1,600 Descending Boston Center
Wed 06:56:55 AM 41.7192 -74.8069 152° Southeast 273 314 8,100 -1,400 Descending Boston Center
Wed 06:57:55 AM 41.6533 -74.7600 152° Southeast 267 307 7,000 -550 Descending Boston Center
Wed 06:58:55 AM 41.5875 -74.7161 153° Southeast 267 307 7,000 -500 Level Boston Center
Wed 06:59:55 AM 41.5178 -74.6664 152° Southeast 277 319 6,000 -500 Descending Boston Center
Wed 07:00:55 AM 41.4497 -74.6225 154° Southeast 282 325 6,000  Level Boston Center
Wed 07:02:06 AM 41.3667 -74.6167 177° South 252 290 6,000  Level New York TRACON
Wed 07:03:01 AM 41.3000 -74.6333 191° South 246 283 6,000 -450 Level New York TRACON
Wed 07:04:06 AM 41.2333 -74.5833 151° Southeast 293 337 5,100 -476 Descending New York TRACON
Wed 07:05:07 AM 41.1833 -74.5000 129° Southeast 285 328 5,000 -446 Descending New York TRACON
Wed 07:06:07 AM 41.1333 -74.4333 135° Southeast 291 335 4,200 -500 Descending New York TRACON
Wed 07:07:07 AM 41.0667 -74.3667 143° Southeast 281 323 4,000 -197 Descending New York TRACON
Wed 07:08:09 AM 41.0167 -74.2833 128° Southeast 275 316 3,800 -500 Descending New York TRACON
Wed 07:09:07 AM 40.9667 -74.2167 135° Southeast 284 327 3,000 -407 Descending New York TRACON
Wed 07:10:07 AM 40.9167 -74.1500 135° Southeast 275 316 3,000  Level New York TRACON
Wed 07:11:07 AM 40.8500 -74.1000 150° Southeast 257 296 3,000 -579 Level New York TRACON
Wed 07:12:01 AM 40.7833 -74.1000 180° South 226 260 1,900 -1,100 Descending New York TRACON
Wed 07:13:07 AM 40.7333 -74.1333 207° Southwest 163 188 800 -810 Descending New York TRACON
Wed 07:14:07 AM 40.7167 -74.1500 217° Southwest 124 143 200 -600 Descending New York TRACON
Wed 07:16:00 AM 40.6925 -74.1687 168° South  Level Estimated

Login

Don't have an account? Register now (free) for customized features, flight alerts, and more!